Time;durP1;ratioP1;P1;durP2;ratioP2;P2;SDS_P1;SDS_P2;PMS_P1;PMS_P2;Temp;Humidity;BMP_temperature;BMP_pressure;BME280_temperature;BME280_humidity;BME280_pressure;Samples;Min_cycle;Max_cycle;Signal;HPM_P1;HPM_P2
2023/10/17 00:02:27;;;;;;;0.60;0.60;;;5.40;99.90;;;;;;5083374;28;20047;-73
2023/10/17 00:04:53;;;;;;;0.60;0.60;;;5.60;99.90;;;;;;5097981;28;20482;-74
2023/10/17 00:07:20;;;;;;;0.70;0.70;;;5.50;99.90;;;;;;5096174;28;20067;-74
2023/10/17 00:09:48;;;;;;;0.60;0.60;;;5.60;99.90;;;;;;5098470;28;20039;-74
2023/10/17 00:14:58;;;;;;;0.55;0.55;;;5.70;99.90;;;;;;5089118;28;20055;-74
2023/10/17 00:17:24;;;;;;;0.50;0.50;;;5.70;99.90;;;;;;5102669;28;20456;-74
2023/10/17 00:19:50;;;;;;;;;;;5.70;99.90;;;;;;5097286;28;20044;-74
2023/10/17 00:22:18;;;;;;;0.50;0.50;;;5.70;99.90;;;;;;5104323;28;20396;-73
2023/10/17 00:24:47;;;;;;;0.43;0.43;;;6.40;99.90;;;;;;5107969;27;20111;-73
2023/10/17 00:27:13;;;;;;;0.50;0.50;;;5.80;99.90;;;;;;5105959;27;20080;-73
2023/10/17 00:29:39;;;;;;;0.50;0.50;;;7.00;99.90;;;;;;5104928;27;20054;-73
2023/10/17 00:32:08;;;;;;;0.50;0.50;;;5.90;99.90;;;;;;5115103;27;20044;-73
2023/10/17 00:34:34;;;;;;;0.60;0.60;;;6.40;99.90;;;;;;5100292;28;20044;-74
2023/10/17 00:37:10;;;;;;;0.60;0.60;;;6.50;99.90;;;;;;5096626;28;20051;-74
2023/10/17 00:39:39;;;;;;;0.43;0.43;;;6.10;99.90;;;;;;5103389;28;20134;-73
2023/10/17 00:44:47;;;;;;;0.60;0.60;;;6.20;99.90;;;;;;5100812;28;20043;-74
2023/10/17 00:47:18;;;;;;;0.60;0.60;;;6.10;99.90;;;;;;5100822;28;20497;-73
2023/10/17 00:49:44;;;;;;;0.50;0.50;;;6.50;99.90;;;;;;5098172;28;20043;-73
2023/10/17 00:52:29;;;;;;;0.82;0.82;;;6.10;99.90;;;;;;5100844;28;20035;-74
2023/10/17 00:54:59;;;;;;;0.50;0.50;;;6.10;99.90;;;;;;5096455;28;20036;-74
2023/10/17 00:57:26;;;;;;;0.50;0.50;;;6.70;99.90;;;;;;5100981;28;20055;-73
2023/10/17 00:59:54;;;;;;;0.50;0.50;;;6.10;99.90;;;;;;5102052;28;20156;-73
2023/10/17 01:02:23;;;;;;;0.40;0.40;;;6.20;99.90;;;;;;5099681;28;20096;-74
2023/10/17 01:04:52;;;;;;;0.55;0.55;;;6.10;99.90;;;;;;5098253;28;20040;-74
2023/10/17 01:07:31;;;;;;;0.47;0.47;;;6.10;99.90;;;;;;5101813;28;20123;-74
2023/10/17 01:10:10;;;;;;;0.40;0.40;;;6.50;99.90;;;;;;5100071;28;20054;-74
2023/10/17 01:12:41;;;;;;;0.50;0.50;;;6.20;99.90;;;;;;5102561;28;20122;-74
2023/10/17 01:15:07;;;;;;;0.52;0.52;;;6.10;99.90;;;;;;5105415;28;20067;-74
2023/10/17 01:17:35;;;;;;;0.50;0.50;;;6.10;99.90;;;;;;5094988;28;20043;-74
2023/10/17 01:20:08;;;;;;;0.55;0.55;;;6.30;99.90;;;;;;5098091;28;20426;-74
2023/10/17 01:22:41;;;;;;;0.95;0.95;;;6.20;99.90;;;;;;5096091;28;20584;-74
2023/10/17 01:25:19;;;;;;;0.75;0.50;;;6.10;99.90;;;;;;5108154;27;20122;-74
2023/10/17 01:27:45;;;;;;;0.50;0.50;;;6.10;99.90;;;;;;5106796;27;20135;-74
2023/10/17 01:30:11;;;;;;;0.57;0.57;;;6.40;99.90;;;;;;5103984;27;20473;-74
2023/10/17 01:32:37;;;;;;;0.40;0.40;;;6.00;99.90;;;;;;5107033;27;20043;-74
2023/10/17 01:35:03;;;;;;;0.80;0.80;;;6.00;99.90;;;;;;5103146;28;20130;-74
2023/10/17 01:37:28;;;;;;;0.52;0.52;;;6.00;99.90;;;;;;5106325;27;20044;-73
2023/10/17 01:39:54;;;;;;;0.50;0.50;;;6.00;99.90;;;;;;5102146;28;20044;-73
2023/10/17 01:42:20;;;;;;;3.30;1.85;;;6.00;99.90;;;;;;5103427;28;20035;-74
2023/10/17 01:44:45;;;;;;;0.50;0.50;;;6.20;99.90;;;;;;5100867;28;20044;-73
2023/10/17 01:47:11;;;;;;;0.57;0.57;;;6.10;99.90;;;;;;5099726;28;20147;-73
2023/10/17 01:49:37;;;;;;;0.68;0.68;;;6.90;99.90;;;;;;5123433;27;20494;-73
2023/10/17 01:52:03;;;;;;;0.40;0.40;;;6.10;99.90;;;;;;5098835;28;20043;-74
2023/10/17 01:54:29;;;;;;;0.60;0.60;;;6.40;99.90;;;;;;5086422;27;20050;-73
2023/10/17 01:57:05;;;;;;;0.55;0.55;;;6.10;99.90;;;;;;5104531;28;20047;-73
2023/10/17 01:59:34;;;;;;;0.50;0.50;;;6.10;99.90;;;;;;5098453;27;20054;-73
2023/10/17 02:02:03;;;;;;;0.50;0.50;;;6.00;99.90;;;;;;5106826;27;20047;-74
2023/10/17 02:04:30;;;;;;;1.30;1.20;;;6.00;99.90;;;;;;5105874;28;20049;-73
2023/10/17 02:06:55;;;;;;;0.50;0.50;;;6.00;99.90;;;;;;5072462;27;20044;-73
2023/10/17 02:09:44;;;;;;;0.60;0.60;;;6.00;99.90;;;;;;5104068;28;20043;-73
2023/10/17 02:12:10;;;;;;;0.57;0.57;;;6.40;99.90;;;;;;5098799;27;20052;-73
2023/10/17 02:14:37;;;;;;;0.50;0.50;;;6.00;99.90;;;;;;5106102;28;20057;-74
2023/10/17 02:17:04;;;;;;;0.57;0.57;;;6.00;99.90;;;;;;5095351;28;20043;-74
2023/10/17 02:19:31;;;;;;;0.60;0.60;;;5.90;99.90;;;;;;5102433;27;20040;-74
2023/10/17 02:22:01;;;;;;;0.60;0.60;;;6.00;99.90;;;;;;5105551;27;20135;-73
2023/10/17 02:24:29;;;;;;;1.88;1.77;;;5.90;99.90;;;;;;5106886;28;20447;-73
2023/10/17 02:27:00;;;;;;;0.50;0.50;;;5.80;99.90;;;;;;5084709;28;20568;-73
2023/10/17 02:29:29;;;;;;;0.63;0.63;;;5.80;99.90;;;;;;5101198;27;20043;-73
2023/10/17 02:31:56;;;;;;;0.50;0.50;;;5.70;99.90;;;;;;5101037;28;20079;-73
2023/10/17 02:34:22;;;;;;;0.60;0.60;;;6.00;99.90;;;;;;5101003;27;20117;-73
2023/10/17 02:36:54;;;;;;;0.47;0.47;;;6.00;99.90;;;;;;5086894;28;20041;-73
2023/10/17 02:39:20;;;;;;;0.40;0.40;;;6.10;99.90;;;;;;5100200;28;20553;-73
2023/10/17 02:41:46;;;;;;;0.60;0.60;;;5.50;99.90;;;;;;5098007;28;20130;-74
2023/10/17 02:44:19;;;;;;;0.70;0.70;;;5.20;99.90;;;;;;5099919;28;20043;-74
2023/10/17 02:46:45;;;;;;;0.57;0.57;;;5.10;99.90;;;;;;5097228;27;20052;-73
2023/10/17 02:49:13;;;;;;;0.60;0.60;;;5.10;99.90;;;;;;5100392;28;20543;-73
2023/10/17 02:51:42;;;;;;;0.60;0.60;;;5.50;99.90;;;;;;5115052;27;20135;-73
2023/10/17 02:54:18;;;;;;;0.60;0.60;;;5.40;99.90;;;;;;5100424;27;20048;-74
2023/10/17 02:56:51;;;;;;;0.60;0.60;;;5.30;99.90;;;;;;5104737;28;20079;-74
2023/10/17 02:59:17;;;;;;;0.50;0.50;;;4.90;99.90;;;;;;5104711;28;20482;-74
2023/10/17 03:01:44;;;;;;;0.50;0.50;;;4.90;99.90;;;;;;5101516;28;20517;-74
2023/10/17 03:04:16;;;;;;;0.60;0.60;;;5.00;99.90;;;;;;5097223;28;20062;-74
2023/10/17 03:06:44;;;;;;;0.40;0.40;;;4.80;99.90;;;;;;5102114;28;20078;-74
2023/10/17 03:11:57;;;;;;;0.60;0.60;;;5.40;99.90;;;;;;5085371;28;20179;-74
2023/10/17 03:14:36;;;;;;;0.65;0.65;;;5.00;99.90;;;;;;5100375;27;20052;-74
2023/10/17 03:17:02;;;;;;;0.50;0.50;;;5.50;99.90;;;;;;5096553;28;20036;-74
2023/10/17 03:19:28;;;;;;;0.60;0.60;;;5.10;99.90;;;;;;5103290;28;20048;-74
2023/10/17 03:21:55;;;;;;;0.63;0.63;;;4.60;99.90;;;;;;5084625;28;20107;-74
2023/10/17 03:24:45;;;;;;;0.70;0.70;;;4.50;99.90;;;;;;5105794;27;20422;-74
2023/10/17 03:27:12;;;;;;;0.70;0.70;;;5.00;99.90;;;;;;5097457;28;20097;-74
2023/10/17 03:29:46;;;;;;;0.50;0.50;;;4.40;99.90;;;;;;5098533;28;20389;-74
2023/10/17 03:32:12;;;;;;;0.60;0.60;;;4.30;99.90;;;;;;5098555;28;20093;-74
2023/10/17 03:34:44;;;;;;;0.52;0.52;;;4.80;99.90;;;;;;5097634;28;20070;-74
2023/10/17 03:39:55;;;;;;;0.60;0.60;;;4.40;99.90;;;;;;5104409;27;20043;-74
2023/10/17 03:45:16;;;;;;;0.90;0.90;;;4.60;99.90;;;;;;5100439;27;20062;-74
2023/10/17 03:47:47;;;;;;;0.60;0.60;;;4.70;99.90;;;;;;5102234;28;20688;-74
2023/10/17 03:53:07;;;;;;;0.65;0.65;;;5.10;99.90;;;;;;5101861;28;20067;-74
2023/10/17 03:55:42;;;;;;;0.50;0.50;;;5.00;99.90;;;;;;5100981;28;20040;-73
2023/10/17 04:00:57;;;;;;;0.60;0.60;;;5.10;99.90;;;;;;5104247;27;20135;-73
2023/10/17 04:03:26;;;;;;;0.60;0.60;;;5.20;99.90;;;;;;5084154;28;20048;-73
2023/10/17 04:08:37;;;;;;;0.50;0.50;;;6.00;99.90;;;;;;5102380;27;20051;-73
2023/10/17 04:11:19;;;;;;;0.70;0.70;;;5.30;99.90;;;;;;5085545;28;20036;-73
2023/10/17 04:13:49;;;;;;;0.50;0.50;;;5.30;99.90;;;;;;5113233;27;20039;-73
2023/10/17 04:16:22;;;;;;;0.50;0.50;;;5.30;99.90;;;;;;5101125;27;20039;-73
2023/10/17 04:19:00;;;;;;;0.70;0.70;;;5.30;99.90;;;;;;5107443;27;20092;-73
2023/10/17 04:21:36;;;;;;;0.50;0.50;;;5.40;99.90;;;;;;5100017;28;20055;-73
2023/10/17 04:24:05;;;;;;;0.60;0.60;;;5.40;99.90;;;;;;5097385;28;20048;-73
2023/10/17 04:26:44;;;;;;;0.85;0.63;;;5.40;99.90;;;;;;5077971;28;20044;-73
2023/10/17 04:29:17;;;;;;;0.47;0.47;;;5.40;99.90;;;;;;5099801;27;20051;-73
2023/10/17 04:31:43;;;;;;;0.60;0.60;;;5.60;99.90;;;;;;5101712;27;20524;-73
2023/10/17 04:34:21;;;;;;;0.50;0.50;;;5.40;99.90;;;;;;5105840;28;20047;-73
2023/10/17 04:36:51;;;;;;;0.45;0.45;;;5.40;99.90;;;;;;5103015;28;20112;-73
2023/10/17 04:44:25;;;;;;;0.43;0.43;;;5.50;99.90;;;;;;5105293;27;20504;-73
2023/10/17 04:49:35;;;;;;;0.50;0.50;;;6.10;99.90;;;;;;5098708;28;20156;-74
2023/10/17 04:52:06;;;;;;;0.50;0.50;;;5.60;99.90;;;;;;5098931;28;20116;-74
2023/10/17 04:57:04;;;;;;;0.50;0.50;;;5.70;99.90;;;;;;5097475;28;20059;-73
2023/10/17 05:07:52;;;;;;;0.68;0.68;;;5.90;99.90;;;;;;5098395;28;20060;-74
2023/10/17 06:19:15;;;;;;;0.60;0.60;;;6.30;99.90;;;;;;5106427;28;20043;-73
2023/10/17 06:34:46;;;;;;;0.60;0.60;;;6.30;99.90;;;;;;5080932;28;20549;-74
2023/10/17 06:37:19;;;;;;;;;;;6.40;99.90;;;;;;5109745;27;20071;-74
2023/10/17 06:39:46;;;;;;;0.50;0.50;;;6.50;99.90;;;;;;5119698;27;20512;-74
2023/10/17 06:42:16;;;;;;;0.50;0.50;;;6.40;99.90;;;;;;5107423;28;20482;-74
2023/10/17 06:44:52;;;;;;;0.60;0.60;;;6.50;99.90;;;;;;5103893;28;20478;-74
2023/10/17 06:47:22;;;;;;;0.40;0.40;;;6.50;99.90;;;;;;5107813;27;20147;-74
2023/10/17 06:50:16;;;;;;;0.50;0.50;;;6.70;99.90;;;;;;5105434;28;20074;-74
2023/10/17 06:55:38;;;;;;;0.40;0.40;;;6.70;99.90;;;;;;5105581;28;20043;-73
2023/10/17 06:58:10;;;;;;;;;;;6.80;99.90;;;;;;5100672;27;20063;-74
2023/10/17 07:00:49;;;;;;;0.50;0.50;;;6.80;99.90;;;;;;5107284;28;20370;-74
2023/10/17 07:03:16;;;;;;;0.63;0.63;;;7.00;99.90;;;;;;5106189;27;20119;-74
2023/10/17 07:05:49;;;;;;;0.60;0.60;;;7.10;99.90;;;;;;5108966;28;20034;-74
2023/10/17 07:08:21;;;;;;;0.40;0.40;;;7.10;99.90;;;;;;5109072;27;20075;-74
2023/10/17 07:16:33;;;;;;;0.50;0.50;;;7.20;99.90;;;;;;5093020;27;20556;-73
2023/10/17 07:21:57;;;;;;;0.50;0.50;;;7.30;99.90;;;;;;5105528;28;20051;-73
2023/10/17 07:24:23;;;;;;;0.45;0.45;;;7.30;99.90;;;;;;5106864;27;20047;-73
2023/10/17 07:26:56;;;;;;;0.50;0.50;;;7.30;99.90;;;;;;5106402;28;20052;-74
2023/10/17 07:29:25;;;;;;;0.65;0.60;;;7.40;99.90;;;;;;5107487;27;20482;-74
2023/10/17 07:31:54;;;;;;;0.43;0.43;;;7.40;99.90;;;;;;5104760;27;20046;-74
2023/10/17 07:34:23;;;;;;;0.40;0.40;;;7.50;99.90;;;;;;5095315;28;20119;-73
2023/10/17 07:36:57;;;;;;;0.77;0.77;;;7.70;99.90;;;;;;5106020;28;20089;-73
2023/10/17 07:39:24;;;;;;;0.50;0.50;;;7.50;99.90;;;;;;5090030;28;20050;-74
2023/10/17 07:41:53;;;;;;;0.50;0.50;;;7.50;99.90;;;;;;5108177;27;20047;-74
2023/10/17 07:44:25;;;;;;;1.15;1.13;;;7.50;99.90;;;;;;5107622;28;20079;-73
2023/10/17 07:49:40;;;;;;;0.60;0.60;;;7.50;99.90;;;;;;5106466;28;20062;-73
2023/10/17 07:52:22;;;;;;;0.40;0.40;;;7.40;99.90;;;;;;5107607;27;20130;-73
2023/10/17 07:54:55;;;;;;;0.50;0.50;;;;;;;;;;5105648;28;20104;-73
2023/10/17 07:57:24;;;;;;;0.50;0.50;;;7.60;99.90;;;;;;5107299;28;20039;-74
2023/10/17 07:59:57;;;;;;;0.55;0.55;;;7.70;99.90;;;;;;5113997;27;20074;-74
2023/10/17 08:02:23;;;;;;;0.50;0.50;;;7.80;99.90;;;;;;5107602;28;20078;-74
2023/10/17 08:04:53;;;;;;;0.50;0.50;;;7.80;99.90;;;;;;5102474;28;20142;-74
2023/10/17 08:07:22;;;;;;;0.50;0.50;;;7.80;99.90;;;;;;5106204;28;20082;-73
2023/10/17 08:09:56;;;;;;;0.50;0.50;;;7.80;99.90;;;;;;5099052;28;20051;-74
2023/10/17 08:12:23;;;;;;;0.60;0.60;;;7.80;99.90;;;;;;5094440;28;20036;-74
2023/10/17 08:14:58;;;;;;;0.50;0.50;;;7.70;99.90;;;;;;5107404;28;20078;-74
2023/10/17 08:17:28;;;;;;;0.50;0.50;;;7.60;99.90;;;;;;5106421;28;20474;-74
2023/10/17 08:22:27;;;;;;;0.50;0.50;;;7.40;99.90;;;;;;5106936;28;20071;-74
2023/10/17 08:24:53;;;;;;;;;;;7.40;99.90;;;;;;5109526;28;20058;-74
2023/10/17 08:29:49;;;;;;;0.50;0.50;;;7.60;99.90;;;;;;5108266;28;20473;-74
2023/10/17 08:34:59;;;;;;;0.50;0.50;;;7.80;99.90;;;;;;5108476;28;20130;-74
2023/10/17 08:37:39;;;;;;;0.57;0.57;;;7.90;99.90;;;;;;5107561;28;20036;-74
2023/10/17 08:40:29;;;;;;;0.47;0.47;;;7.90;99.90;;;;;;5108293;28;20122;-74
2023/10/17 08:42:52;;;;;;;0.60;0.60;;;8.10;99.90;;;;;;5104846;28;20043;-74
2023/10/17 08:45:19;;;;;;;0.50;0.50;;;8.30;99.90;;;;;;5106756;28;20046;-74
2023/10/17 08:47:46;;;;;;;0.60;0.60;;;8.30;99.90;;;;;;5106127;28;20051;-74
2023/10/17 08:50:15;;;;;;;0.50;0.50;;;8.40;99.90;;;;;;5108205;28;20051;-74
2023/10/17 08:52:44;;;;;;;0.60;0.60;;;8.80;99.90;;;;;;5107192;28;20083;-74
2023/10/17 08:55:15;;;;;;;0.50;0.50;;;8.70;99.90;;;;;;5108186;28;20409;-74
2023/10/17 08:57:41;;;;;;;0.40;0.40;;;8.70;99.90;;;;;;5107560;28;20390;-74
2023/10/17 09:02:40;;;;;;;0.43;0.43;;;8.90;99.90;;;;;;5128822;27;20054;-73
2023/10/17 09:05:13;;;;;;;0.47;0.47;;;9.10;99.90;;;;;;5106226;28;20054;-74
2023/10/17 09:07:42;;;;;;;0.40;0.40;;;9.20;99.90;;;;;;5103910;28;20060;-74
2023/10/17 09:10:36;;;;;;;0.60;0.60;;;9.30;99.90;;;;;;5107046;28;20124;-73
2023/10/17 09:15:49;;;;;;;0.47;0.47;;;9.40;99.90;;;;;;5109221;28;20055;-73
2023/10/17 09:18:27;;;;;;;0.40;0.40;;;9.50;99.90;;;;;;5104834;28;20046;-72
2023/10/17 09:20:57;;;;;;;0.40;0.40;;;9.60;99.90;;;;;;5105182;28;20043;-73
2023/10/17 09:23:28;;;;;;;0.30;0.30;;;9.70;99.90;;;;;;5101505;28;20482;-73
2023/10/17 09:26:01;;;;;;;0.52;0.52;;;9.70;99.90;;;;;;5102947;28;20047;-73
2023/10/17 09:28:28;;;;;;;0.40;0.40;;;9.80;99.90;;;;;;5103746;28;20051;-73
2023/10/17 09:31:16;;;;;;;0.55;0.55;;;9.80;99.90;;;;;;5104499;28;20373;-74
2023/10/17 09:33:45;;;;;;;0.40;0.40;;;10.00;99.90;;;;;;5102560;28;20075;-74
2023/10/17 09:36:17;;;;;;;0.85;0.85;;;10.00;99.90;;;;;;5105574;28;20096;-73
2023/10/17 09:38:44;;;;;;;0.40;0.40;;;10.10;99.90;;;;;;5102893;28;20457;-74
2023/10/17 09:41:17;;;;;;;0.30;0.30;;;10.10;99.90;;;;;;5080142;28;20786;-74
2023/10/17 09:43:47;;;;;;;0.30;0.30;;;10.20;99.90;;;;;;5105237;28;20039;-74
2023/10/17 09:46:14;;;;;;;0.40;0.40;;;10.20;99.90;;;;;;5125552;27;20055;-74
2023/10/17 09:48:45;;;;;;;0.47;0.47;;;10.30;99.90;;;;;;5090747;28;20051;-74
2023/10/17 09:51:20;;;;;;;0.40;0.40;;;10.30;99.90;;;;;;5090739;28;20055;-73
2023/10/17 09:53:53;;;;;;;0.55;0.50;;;10.40;99.90;;;;;;5110757;28;20043;-74
2023/10/17 09:56:50;;;;;;;0.40;0.40;;;10.40;99.90;;;;;;5109934;28;20130;-74
2023/10/17 09:59:24;;;;;;;0.45;0.45;;;10.50;99.90;;;;;;5092104;27;20060;-72
2023/10/17 10:01:51;;;;;;;0.50;0.50;;;10.50;99.90;;;;;;5112540;27;20485;-73
2023/10/17 10:04:18;;;;;;;0.60;0.60;;;10.60;99.90;;;;;;5115723;27;20050;-73
2023/10/17 10:06:44;;;;;;;0.40;0.40;;;10.70;99.90;;;;;;5109767;27;20561;-74
2023/10/17 10:09:17;;;;;;;0.30;0.30;;;10.70;99.90;;;;;;5103556;27;20115;-72
2023/10/17 10:11:49;;;;;;;0.30;0.30;;;10.80;99.90;;;;;;5108341;28;20554;-72
2023/10/17 10:14:15;;;;;;;0.35;0.35;;;10.90;99.90;;;;;;5111611;28;20147;-73
2023/10/17 10:16:53;;;;;;;0.40;0.40;;;10.90;99.90;;;;;;5111337;27;20112;-72
2023/10/17 10:19:21;;;;;;;0.30;0.30;;;10.80;99.90;;;;;;5113190;27;20074;-73
2023/10/17 10:21:58;;;;;;;0.40;0.40;;;11.00;99.90;;;;;;5112262;28;20054;-74
2023/10/17 10:24:29;;;;;;;0.30;0.30;;;11.10;99.90;;;;;;5112191;28;20047;-73
2023/10/17 10:27:26;;;;;;;0.40;0.40;;;11.10;99.90;;;;;;5112508;27;20075;-74
2023/10/17 10:30:43;;;;;;;0.82;0.82;;;11.10;99.90;;;;;;5106578;27;20130;-74
2023/10/17 10:33:09;;;;;;;0.30;0.30;;;11.20;99.90;;;;;;5098119;28;20067;-73
2023/10/17 10:35:36;;;;;;;0.28;0.28;;;11.20;99.90;;;;;;5105131;27;20051;-73
2023/10/17 10:38:01;;;;;;;0.40;0.40;;;11.30;99.90;;;;;;5115531;27;20055;-72
2023/10/17 10:40:40;;;;;;;0.43;0.43;;;11.30;99.90;;;;;;5112064;28;20482;-73
2023/10/17 10:43:06;;;;;;;0.90;0.68;;;11.30;99.90;;;;;;5110761;28;20052;-73
2023/10/17 10:45:42;;;;;;;0.30;0.30;;;11.30;99.90;;;;;;5093192;27;20066;-72
2023/10/17 10:48:15;;;;;;;0.80;0.80;;;11.30;99.90;;;;;;5108776;27;20130;-73
2023/10/17 10:50:57;;;;;;;0.30;0.30;;;11.30;99.90;;;;;;5111172;28;20049;-73
2023/10/17 10:53:29;;;;;;;0.30;0.30;;;11.40;99.90;;;;;;5111503;28;20130;-73
2023/10/17 10:56:13;;;;;;;0.40;0.40;;;11.40;99.90;;;;;;5110320;28;20481;-73
2023/10/17 10:58:44;;;;;;;0.28;0.28;;;11.40;99.90;;;;;;5109262;28;20067;-72
2023/10/17 11:01:11;;;;;;;0.20;0.20;;;11.50;99.90;;;;;;5111586;27;20505;-72
2023/10/17 11:03:46;;;;;;;0.40;0.40;;;11.60;99.90;;;;;;5111177;28;20043;-73
2023/10/17 11:06:13;;;;;;;0.30;0.30;;;11.60;99.90;;;;;;5089704;28;20044;-73
2023/10/17 11:08:45;;;;;;;0.40;0.40;;;11.60;99.90;;;;;;5113180;27;20059;-72
2023/10/17 11:11:13;;;;;;;0.45;0.45;;;11.60;99.90;;;;;;5103026;28;20043;-72
2023/10/17 11:13:44;;;;;;;0.50;0.50;;;11.70;99.90;;;;;;5097169;27;20131;-73
2023/10/17 11:16:12;;;;;;;0.50;0.50;;;11.70;99.90;;;;;;5110672;28;20080;-72
2023/10/17 11:18:40;;;;;;;0.40;0.40;;;11.70;99.90;;;;;;5110724;27;20139;-73
2023/10/17 11:21:08;;;;;;;0.30;0.30;;;11.70;99.90;;;;;;5099157;28;20043;-73
2023/10/17 11:23:38;;;;;;;0.30;0.30;;;11.80;99.90;;;;;;5103258;28;20040;-73
2023/10/17 11:26:12;;;;;;;0.57;0.57;;;11.90;99.90;;;;;;5107109;27;20051;-73
2023/10/17 11:28:51;;;;;;;0.47;0.47;;;11.90;99.90;;;;;;5108438;28;20105;-73
2023/10/17 11:31:27;;;;;;;0.98;0.98;;;11.90;99.90;;;;;;5110356;28;20047;-73
2023/10/17 11:34:03;;;;;;;0.35;0.35;;;11.90;99.90;;;;;;5108149;28;20570;-73
2023/10/17 11:36:49;;;;;;;0.30;0.30;;;11.90;99.90;;;;;;5105500;28;20494;-73
2023/10/17 11:39:24;;;;;;;0.82;0.63;;;11.90;99.90;;;;;;5109879;27;20127;-73
2023/10/17 11:41:53;;;;;;;0.32;0.32;;;11.90;99.90;;;;;;5099081;28;20040;-72
2023/10/17 11:44:23;;;;;;;0.30;0.30;;;12.00;99.90;;;;;;5110382;27;20058;-72
2023/10/17 11:47:01;;;;;;;0.52;0.43;;;12.00;99.90;;;;;;5100731;28;20047;-72
2023/10/17 11:49:35;;;;;;;0.38;0.38;;;12.00;99.90;;;;;;5110524;28;20055;-72
2023/10/17 11:52:04;;;;;;;0.30;0.30;;;12.00;99.90;;;;;;5110365;28;20040;-72
2023/10/17 11:54:31;;;;;;;0.30;0.30;;;12.00;99.90;;;;;;5115432;27;20059;-73
2023/10/17 11:57:23;;;;;;;0.40;0.40;;;11.90;99.90;;;;;;5110399;28;20052;-72
2023/10/17 11:59:57;;;;;;;0.35;0.35;;;12.00;99.90;;;;;;5107877;28;20623;-72
2023/10/17 12:02:24;;;;;;;0.38;0.38;;;12.10;99.90;;;;;;5104133;28;20039;-72
2023/10/17 12:04:49;;;;;;;0.32;0.32;;;12.00;99.90;;;;;;5112635;27;20451;-73
2023/10/17 12:07:15;;;;;;;0.30;0.30;;;12.10;99.90;;;;;;5109318;28;20043;-74
2023/10/17 12:09:41;;;;;;;0.30;0.30;;;12.10;99.90;;;;;;5107072;28;20156;-72
2023/10/17 12:12:07;;;;;;;0.30;0.30;;;12.20;99.90;;;;;;5109554;27;20078;-73
2023/10/17 12:14:36;;;;;;;0.30;0.30;;;12.20;99.90;;;;;;5111083;27;20054;-73
2023/10/17 12:17:02;;;;;;;0.30;0.30;;;12.30;99.90;;;;;;5109119;27;20410;-73
2023/10/17 12:19:28;;;;;;;0.28;0.28;;;12.30;99.90;;;;;;5109824;28;20047;-72
2023/10/17 12:21:55;;;;;;;0.30;0.30;;;12.30;99.90;;;;;;5110167;28;20126;-73
2023/10/17 12:24:28;;;;;;;0.30;0.30;;;12.40;99.90;;;;;;5109997;27;20075;-73
2023/10/17 12:26:57;;;;;;;0.40;0.40;;;12.40;99.90;;;;;;5105321;28;20048;-73
2023/10/17 12:29:26;;;;;;;2.38;0.85;;;12.40;99.90;;;;;;5108913;28;20054;-73
2023/10/17 12:31:55;;;;;;;0.30;0.30;;;12.50;99.90;;;;;;5108482;28;20078;-73
2023/10/17 12:34:20;;;;;;;0.30;0.30;;;12.50;99.90;;;;;;5107764;28;20048;-72
2023/10/17 12:36:48;;;;;;;0.40;0.40;;;12.60;99.90;;;;;;5105606;27;20032;-72
2023/10/17 12:39:16;;;;;;;0.45;0.45;;;12.60;99.90;;;;;;5106374;28;20221;-72
2023/10/17 12:41:43;;;;;;;0.32;0.32;;;12.60;99.90;;;;;;5106478;27;20051;-72
2023/10/17 12:44:09;;;;;;;0.50;0.50;;;12.70;99.90;;;;;;5108883;28;20064;-72
2023/10/17 12:46:35;;;;;;;0.30;0.30;;;12.70;99.90;;;;;;5109605;28;20710;-73
2023/10/17 12:49:01;;;;;;;0.30;0.30;;;12.80;99.90;;;;;;5109583;28;20055;-73
2023/10/17 12:51:27;;;;;;;0.28;0.28;;;12.80;99.90;;;;;;5111957;28;20119;-73
2023/10/17 12:53:54;;;;;;;0.30;0.30;;;12.80;99.90;;;;;;5109322;27;20050;-73
2023/10/17 12:56:24;;;;;;;0.45;0.45;;;12.80;99.90;;;;;;5107624;28;20040;-73
2023/10/17 12:58:51;;;;;;;0.20;0.20;;;12.90;99.90;;;;;;5109481;28;20399;-73
2023/10/17 13:01:17;;;;;;;0.30;0.30;;;12.90;99.90;;;;;;5106278;28;20104;-73
2023/10/17 13:03:42;;;;;;;;;;;13.00;99.90;;;;;;5101850;28;20079;-73
2023/10/17 13:06:09;;;;;;;0.35;0.35;;;13.10;99.90;;;;;;5110228;28;20438;-73
2023/10/17 13:08:35;;;;;;;;;;;13.30;99.90;;;;;;5112260;28;20048;-72
2023/10/17 13:11:04;;;;;;;0.22;0.22;;;13.40;99.90;;;;;;5114410;28;19924;-73
2023/10/17 13:13:30;;;;;;;0.30;0.30;;;13.30;99.90;;;;;;5098663;28;20645;-72
2023/10/17 13:15:57;;;;;;;0.38;0.38;;;13.30;99.90;;;;;;5108750;28;20043;-72
2023/10/17 13:18:30;;;;;;;0.30;0.30;;;13.50;99.90;;;;;;5103884;28;20055;-72
2023/10/17 13:21:02;;;;;;;0.38;0.38;;;13.40;99.90;;;;;;5110356;28;20051;-72
2023/10/17 13:23:28;;;;;;;0.40;0.40;;;13.50;99.90;;;;;;5115607;27;20482;-72
2023/10/17 13:25:54;;;;;;;;;;;13.50;99.90;;;;;;5113759;27;20047;-73
2023/10/17 13:28:20;;;;;;;0.22;0.22;;;13.90;99.90;;;;;;5111751;27;19931;-73
2023/10/17 13:30:46;;;;;;;0.28;0.28;;;14.50;99.90;;;;;;5113694;28;20125;-73
2023/10/17 13:33:11;;;;;;;;;;;15.20;99.90;;;;;;5109720;28;20504;-72
2023/10/17 13:35:41;;;;;;;0.30;0.30;;;15.70;99.90;;;;;;5113026;27;19931;-73
2023/10/17 13:38:07;;;;;;;0.20;0.20;;;16.10;99.90;;;;;;5113426;27;20042;-72
2023/10/17 13:40:32;;;;;;;;;;;16.50;99.90;;;;;;5113175;28;20039;-72
2023/10/17 13:43:00;;;;;;;0.20;0.20;;;16.90;99.90;;;;;;5112328;28;19924;-72
2023/10/17 13:45:29;;;;;;;0.20;0.20;;;17.30;99.90;;;;;;5112066;28;20048;-73
2023/10/17 13:47:55;;;;;;;0.20;0.20;;;17.60;99.90;;;;;;5111937;27;20472;-73
2023/10/17 13:50:21;;;;;;;;;;;18.10;99.90;;;;;;5112996;28;20126;-72
2023/10/17 13:52:48;;;;;;;0.10;0.10;;;18.20;99.90;;;;;;5112695;28;20362;-72
2023/10/17 13:55:23;;;;;;;0.20;0.20;;;18.40;99.90;;;;;;5112683;27;20100;-73
2023/10/17 13:57:49;;;;;;;0.25;0.25;;;18.60;99.90;;;;;;5112395;27;20055;-73
2023/10/17 14:00:21;;;;;;;0.20;0.20;;;18.90;99.90;;;;;;5116071;27;20492;-73
2023/10/17 14:02:49;;;;;;;0.20;0.20;;;19.10;99.90;;;;;;5103671;28;20440;-73
2023/10/17 14:05:19;;;;;;;0.10;0.10;;;19.40;97.70;;;;;;5112863;28;20073;-73
2023/10/17 14:07:48;;;;;;;0.20;0.20;;;19.50;97.10;;;;;;5112278;27;20048;-73
2023/10/17 14:10:15;;;;;;;0.10;0.10;;;19.50;99.90;;;;;;5087368;28;20043;-73
2023/10/17 14:12:41;;;;;;;0.20;0.20;;;19.50;99.90;;;;;;5110265;28;20039;-73
2023/10/17 14:15:10;;;;;;;0.13;0.13;;;19.70;99.90;;;;;;5111666;28;20482;-73
2023/10/17 14:17:44;;;;;;;0.32;0.32;;;19.70;97.00;;;;;;5111416;27;20067;-74
2023/10/17 14:20:28;;;;;;;0.20;0.20;;;19.60;94.90;;;;;;5112848;27;20058;-73
2023/10/17 14:26:03;;;;;;;0.20;0.20;;;19.50;92.80;;;;;;5102821;27;20431;-73
2023/10/17 14:28:32;;;;;;;0.20;0.20;;;19.40;94.90;;;;;;5113079;27;20042;-76
2023/10/17 14:31:01;;;;;;;0.10;0.10;;;19.50;93.00;;;;;;5108340;27;20103;-75
2023/10/17 14:33:27;;;;;;;0.20;0.20;;;19.60;91.80;;;;;;5089666;28;20072;-74
2023/10/17 14:35:53;;;;;;;0.10;0.10;;;19.70;93.90;;;;;;5096150;27;20119;-74
2023/10/17 14:38:18;;;;;;;0.20;0.20;;;19.80;91.30;;;;;;5087270;28;20047;-74
2023/10/17 14:40:44;;;;;;;0.10;0.10;;;19.80;91.90;;;;;;5100196;27;20108;-74
2023/10/17 14:43:12;;;;;;;0.20;0.20;;;19.70;91.50;;;;;;5103715;27;20048;-74
2023/10/17 14:45:41;;;;;;;0.13;0.13;;;19.90;92.80;;;;;;5109967;28;20088;-73
2023/10/17 14:48:11;;;;;;;0.20;0.20;;;20.10;92.60;;;;;;5112853;27;20566;-73
2023/10/17 14:50:40;;;;;;;0.20;0.20;;;20.20;92.50;;;;;;5088520;28;20451;-74
2023/10/17 14:53:06;;;;;;;0.15;0.15;;;20.20;91.50;;;;;;5108283;28;20387;-74
2023/10/17 14:55:33;;;;;;;0.43;0.43;;;20.30;93.50;;;;;;5109717;28;20095;-74
2023/10/17 14:58:00;;;;;;;0.35;0.35;;;20.20;92.50;;;;;;5110370;27;20055;-75
2023/10/17 15:00:28;;;;;;;0.10;0.10;;;20.20;94.90;;;;;;5105215;28;20438;-74
2023/10/17 15:02:55;;;;;;;0.20;0.20;;;20.20;94.30;;;;;;5105414;28;20126;-74
2023/10/17 15:05:21;;;;;;;0.13;0.13;;;20.20;91.20;;;;;;5081612;28;20048;-75
2023/10/17 15:07:47;;;;;;;0.20;0.20;;;20.10;94.50;;;;;;5087046;28;20058;-74
2023/10/17 15:10:13;;;;;;;0.10;0.10;;;20.10;91.20;;;;;;5099541;28;20130;-74
2023/10/17 15:12:45;;;;;;;0.20;0.20;;;20.20;94.10;;;;;;5105384;27;20048;-75
2023/10/17 15:15:12;;;;;;;0.10;0.10;;;20.20;95.60;;;;;;5111009;27;20047;-74
2023/10/17 15:17:44;;;;;;;0.20;0.20;;;20.00;91.60;;;;;;5101876;27;20040;-74
2023/10/17 15:20:11;;;;;;;0.20;0.20;;;19.80;90.20;;;;;;5100223;28;20078;-73
2023/10/17 15:22:41;;;;;;;0.20;0.20;;;19.70;91.00;;;;;;5098947;27;20510;-74
2023/10/17 15:25:12;;;;;;;0.10;0.10;;;19.60;93.40;;;;;;5129861;27;20043;-74
2023/10/17 15:27:39;;;;;;;0.20;0.20;;;19.70;93.70;;;;;;5124056;27;20044;-74
2023/10/17 15:30:05;;;;;;;0.20;0.20;;;19.70;94.20;;;;;;5107949;28;20474;-74
2023/10/17 15:32:31;;;;;;;0.10;0.10;;;19.80;93.30;;;;;;5110159;27;20126;-74
2023/10/17 15:34:57;;;;;;;0.20;0.20;;;19.80;95.20;;;;;;5108944;28;20554;-74
2023/10/17 15:37:22;;;;;;;0.20;0.20;;;19.70;97.20;;;;;;5093250;28;20059;-73
2023/10/17 15:39:48;;;;;;;;;;;19.60;94.00;;;;;;5110466;27;20048;-74
2023/10/17 15:42:17;;;;;;;0.20;0.20;;;19.50;94.00;;;;;;5103830;28;19976;-74
2023/10/17 15:44:46;;;;;;;0.10;0.10;;;19.40;94.00;;;;;;5105553;27;20089;-74